Time;durP1;ratioP1;P1;durP2;ratioP2;P2;SDS_P1;SDS_P2;PMS_P1;PMS_P2;Temp;Humidity;BMP_temperature;BMP_pressure;BME280_temperature;BME280_humidity;BME280_pressure;Samples;Min_cycle;Max_cycle;Signal;HPM_P1;HPM_P2
2021/12/05 00:19:27;;;;;;;;;1.50;1.00;;;;;;;;5052363;28;11375;-78
2021/12/05 00:22:10;;;;;;;;;0.00;0.00;;;;;;;;5025194;28;11402;-78
2021/12/05 00:24:41;;;;;;;;;0.00;0.00;;;;;;;;5035521;28;11435;-78
2021/12/05 00:27:15;;;;;;;;;1.00;0.00;;;;;;;;5042077;28;11404;-78
2021/12/05 00:29:51;;;;;;;;;0.00;0.00;;;;;;;;5046755;28;11451;-78
2021/12/05 00:32:24;;;;;;;;;4.50;0.75;;;;;;;;5025996;28;11321;-78
2021/12/05 00:40:56;;;;;;;;;0.50;0.25;;;;;;;;5033266;28;11462;-78
2021/12/05 00:43:56;;;;;;;;;0.50;0.50;;;;;;;;5034916;28;11437;-77
2021/12/05 00:46:42;;;;;;;;;0.00;0.00;;;;;;;;5050420;28;11463;-78
2021/12/05 00:55:26;;;;;;;;;0.75;0.75;;;;;;;;5030378;28;11469;-78
2021/12/05 00:58:28;;;;;;;;;0.00;0.00;;;;;;;;5037690;28;11443;-79
2021/12/05 01:06:59;;;;;;;;;0.25;0.00;;;;;;;;5026848;28;12215;-78
2021/12/05 01:09:42;;;;;;;;;0.00;0.00;;;;;;;;5038871;28;11461;-77
2021/12/05 01:12:36;;;;;;;;;0.00;0.00;;;;;;;;5043743;28;11440;-79
2021/12/05 01:15:07;;;;;;;;;0.00;0.00;;;;;;;;5038850;28;11458;-79
2021/12/05 01:17:42;;;;;;;;;0.00;0.00;;;;;;;;5043359;28;11449;-78
2021/12/05 01:20:14;;;;;;;;;0.25;0.00;;;;;;;;5040798;28;11484;-79
2021/12/05 01:22:46;;;;;;;;;0.00;0.00;;;;;;;;5034977;28;11569;-78
2021/12/05 01:25:25;;;;;;;;;0.00;0.00;;;;;;;;5038823;28;11453;-79
2021/12/05 01:28:00;;;;;;;;;0.00;0.00;;;;;;;;5034555;28;11566;-78
2021/12/05 01:30:37;;;;;;;;;0.00;0.00;;;;;;;;5028697;28;11356;-77
2021/12/05 01:33:12;;;;;;;;;2.00;1.00;;;;;;;;5032254;28;11639;-78
2021/12/05 01:38:32;;;;;;;;;0.00;0.00;;;;;;;;5031954;28;11461;-77
2021/12/05 01:44:25;;;;;;;;;0.00;0.00;;;;;;;;5012120;28;11484;-78
2021/12/05 01:52:50;;;;;;;;;0.75;0.75;;;;;;;;5044092;28;11402;-78
2021/12/05 02:37:35;;;;;;;;;0.00;0.00;;;;;;;;5049320;28;11536;-79
2021/12/05 02:42:58;;;;;;;;;0.00;0.00;;;;;;;;5041948;28;11442;-79
2021/12/05 02:45:26;;;;;;;;;0.00;0.00;;;;;;;;5044869;28;11475;-79
2021/12/05 02:47:54;;;;;;;;;1.00;0.00;;;;;;;;5032996;28;11560;-79
2021/12/05 02:50:25;;;;;;;;;0.00;0.00;;;;;;;;5010016;28;11450;-79
2021/12/05 02:52:58;;;;;;;;;0.00;0.00;;;;;;;;5053324;28;11445;-79
2021/12/05 02:55:35;;;;;;;;;0.75;0.75;;;;;;;;5034458;28;11450;-79
2021/12/05 02:58:13;;;;;;;;;0.00;0.00;;;;;;;;5045314;28;11454;-78
2021/12/05 03:00:44;;;;;;;;;0.00;0.00;;;;;;;;5044598;28;11406;-79
2021/12/05 03:03:18;;;;;;;;;1.00;0.00;;;;;;;;5044824;28;11527;-78
2021/12/05 03:05:49;;;;;;;;;0.25;0.00;;;;;;;;5045032;28;11483;-78
2021/12/05 03:08:19;;;;;;;;;1.25;0.00;;;;;;;;5050393;28;11422;-78
2021/12/05 03:10:46;;;;;;;;;0.00;0.00;;;;;;;;5044967;28;12276;-79
2021/12/05 03:13:14;;;;;;;;;0.00;0.00;;;;;;;;5056955;28;11505;-78
2021/12/05 03:15:41;;;;;;;;;0.00;0.00;;;;;;;;5048646;28;11447;-79
2021/12/05 03:18:09;;;;;;;;;0.00;0.00;;;;;;;;5056853;28;11443;-78
2021/12/05 03:20:36;;;;;;;;;0.00;0.00;;;;;;;;5061786;28;12330;-77
2021/12/05 03:23:04;;;;;;;;;4.00;1.00;;;;;;;;5058618;28;11444;-78
2021/12/05 03:25:34;;;;;;;;;0.00;0.00;;;;;;;;5053938;28;11469;-78
2021/12/05 03:28:02;;;;;;;;;0.00;0.00;;;;;;;;5053956;28;11581;-78
2021/12/05 03:30:29;;;;;;;;;2.00;0.00;;;;;;;;5043289;28;11392;-78
2021/12/05 03:32:58;;;;;;;;;0.00;0.00;;;;;;;;5048934;28;12236;-78
2021/12/05 03:35:28;;;;;;;;;0.00;0.00;;;;;;;;5058575;28;11424;-78
2021/12/05 03:37:56;;;;;;;;;0.00;0.00;;;;;;;;5047155;28;11442;-79
2021/12/05 03:40:26;;;;;;;;;0.25;0.25;;;;;;;;5045233;28;11455;-78
2021/12/05 03:42:56;;;;;;;;;0.50;0.00;;;;;;;;5037228;28;11468;-78
2021/12/05 03:45:28;;;;;;;;;0.00;0.00;;;;;;;;5046150;28;11436;-79
2021/12/05 03:47:56;;;;;;;;;0.00;0.00;;;;;;;;5049683;28;11461;-78
2021/12/05 03:50:25;;;;;;;;;0.00;0.00;;;;;;;;5038555;28;11455;-77
2021/12/05 03:52:53;;;;;;;;;0.00;0.00;;;;;;;;5051161;28;11431;-79
2021/12/05 03:55:21;;;;;;;;;0.00;0.00;;;;;;;;5057781;28;11574;-79
2021/12/05 03:57:49;;;;;;;;;0.00;0.00;;;;;;;;5045608;28;11448;-79
2021/12/05 04:00:22;;;;;;;;;0.00;0.00;;;;;;;;5023084;28;11531;-79
2021/12/05 04:02:51;;;;;;;;;0.00;0.00;;;;;;;;5044083;28;11560;-79
2021/12/05 04:05:18;;;;;;;;;0.25;0.25;;;;;;;;5036723;28;11482;-79
2021/12/05 04:07:46;;;;;;;;;2.50;0.25;;;;;;;;5044256;28;11587;-78
2021/12/05 04:10:14;;;;;;;;;0.00;0.00;;;;;;;;5045030;28;11469;-78
2021/12/05 04:12:41;;;;;;;;;0.00;0.00;;;;;;;;5043189;28;11473;-78
2021/12/05 04:15:12;;;;;;;;;1.00;1.00;;;;;;;;5047788;28;11577;-79
2021/12/05 04:17:41;;;;;;;;;0.00;0.00;;;;;;;;5043024;28;11480;-79
2021/12/05 04:20:11;;;;;;;;;0.25;0.25;;;;;;;;5056997;28;12220;-78
2021/12/05 04:22:38;;;;;;;;;0.25;0.25;;;;;;;;5034213;28;11461;-77
2021/12/05 04:25:09;;;;;;;;;0.00;0.00;;;;;;;;5043665;28;11460;-78
2021/12/05 04:27:37;;;;;;;;;0.00;0.00;;;;;;;;5035719;28;11587;-78
2021/12/05 04:30:06;;;;;;;;;0.00;0.00;;;;;;;;5042199;28;11541;-79
2021/12/05 04:32:33;;;;;;;;;0.00;0.00;;;;;;;;5042801;28;11581;-78
2021/12/05 04:35:02;;;;;;;;;0.00;0.00;;;;;;;;5042314;28;11490;-78
2021/12/05 04:37:29;;;;;;;;;2.00;0.00;;;;;;;;5043719;28;11605;-79
2021/12/05 04:39:56;;;;;;;;;0.00;0.00;;;;;;;;5039279;28;11435;-78
2021/12/05 04:42:24;;;;;;;;;0.00;0.00;;;;;;;;5025267;28;11557;-79
2021/12/05 04:44:52;;;;;;;;;0.00;0.00;;;;;;;;5043985;28;11457;-78
2021/12/05 04:47:19;;;;;;;;;0.00;0.00;;;;;;;;5042579;28;11432;-78
2021/12/05 04:49:47;;;;;;;;;0.00;0.00;;;;;;;;5052705;28;11440;-78
2021/12/05 04:52:16;;;;;;;;;1.00;0.00;;;;;;;;5049296;28;11523;-78
2021/12/05 04:54:43;;;;;;;;;0.00;0.00;;;;;;;;5043986;28;11453;-78
2021/12/05 04:57:11;;;;;;;;;1.00;1.00;;;;;;;;5029241;28;11551;-78
2021/12/05 04:59:44;;;;;;;;;0.00;0.00;;;;;;;;5043858;28;11601;-78
2021/12/05 05:02:11;;;;;;;;;0.00;0.00;;;;;;;;5041586;28;11408;-79
2021/12/05 05:04:42;;;;;;;;;0.00;0.00;;;;;;;;5044022;28;11446;-78
2021/12/05 05:07:17;;;;;;;;;0.00;0.00;;;;;;;;5043546;28;11396;-78
2021/12/05 05:09:46;;;;;;;;;0.00;0.00;;;;;;;;5042874;28;11480;-78
2021/12/05 05:12:14;;;;;;;;;0.00;0.00;;;;;;;;5030965;28;11414;-78
2021/12/05 05:14:42;;;;;;;;;0.00;0.00;;;;;;;;5040586;28;11476;-77
2021/12/05 05:17:09;;;;;;;;;0.00;0.00;;;;;;;;5042926;28;11588;-77
2021/12/05 05:19:40;;;;;;;;;0.00;0.00;;;;;;;;5040413;28;12298;-78
2021/12/05 05:22:18;;;;;;;;;0.00;0.00;;;;;;;;5043528;28;11443;-78
2021/12/05 05:44:36;;;;;;;;;1.00;0.00;;;;;;;;5057269;28;11486;-79
2021/12/05 05:47:08;;;;;;;;;0.00;0.00;;;;;;;;5044942;28;11417;-78
2021/12/05 05:49:55;;;;;;;;;1.00;0.00;;;;;;;;5043686;28;11568;-78
2021/12/05 05:52:23;;;;;;;;;0.00;0.00;;;;;;;;5051975;28;11449;-78
2021/12/05 05:54:52;;;;;;;;;0.00;0.00;;;;;;;;5051481;28;11509;-78
2021/12/05 05:57:25;;;;;;;;;0.00;0.00;;;;;;;;5043015;28;11453;-79
2021/12/05 05:59:56;;;;;;;;;2.00;0.00;;;;;;;;5045164;28;11510;-78
2021/12/05 06:05:09;;;;;;;;;0.00;0.00;;;;;;;;5042875;28;11436;-77
2021/12/05 06:07:43;;;;;;;;;2.00;0.00;;;;;;;;5033974;28;11441;-77
2021/12/05 06:10:11;;;;;;;;;0.00;0.00;;;;;;;;5063923;28;11527;-78
2021/12/05 06:12:40;;;;;;;;;0.00;0.00;;;;;;;;5052870;28;11466;-77
2021/12/05 06:15:10;;;;;;;;;1.00;0.00;;;;;;;;5050162;28;11469;-79
2021/12/05 06:17:40;;;;;;;;;0.00;0.00;;;;;;;;5060338;28;11427;-78
2021/12/05 06:20:08;;;;;;;;;1.50;0.00;;;;;;;;5042284;28;11467;-78
2021/12/05 06:22:36;;;;;;;;;0.25;0.00;;;;;;;;5040350;28;11582;-79
2021/12/05 06:25:04;;;;;;;;;0.00;0.00;;;;;;;;5051378;28;11476;-76
2021/12/05 06:27:32;;;;;;;;;0.00;0.00;;;;;;;;5048462;28;11498;-78
2021/12/05 06:30:09;;;;;;;;;0.00;0.00;;;;;;;;5026650;28;11459;-77
2021/12/05 06:36:50;;;;;;;;;1.00;1.00;;;;;;;;5040659;28;11418;-78
2021/12/05 06:38:37;;;;;;;;;0.00;0.00;;;;;;;;5032747;28;11410;-78
2021/12/05 06:41:12;;;;;;;;;0.00;0.00;;;;;;;;5035049;28;12248;-74
2021/12/05 06:46:28;;;;;;;;;0.00;0.00;;;;;;;;5029156;28;11444;-75
2021/12/05 06:48:56;;;;;;;;;0.00;0.00;;;;;;;;5033152;28;11497;-75
2021/12/05 06:51:25;;;;;;;;;0.00;0.00;;;;;;;;5045039;28;11447;-75
2021/12/05 06:53:53;;;;;;;;;0.00;0.00;;;;;;;;5045790;28;11445;-78
2021/12/05 06:56:21;;;;;;;;;0.00;0.00;;;;;;;;5046127;28;11560;-78
2021/12/05 06:58:48;;;;;;;;;0.00;0.00;;;;;;;;5045443;28;11493;-78
2021/12/05 07:01:16;;;;;;;;;0.00;0.00;;;;;;;;5046283;28;11376;-78
2021/12/05 07:03:48;;;;;;;;;0.00;0.00;;;;;;;;5011349;28;11466;-79
2021/12/05 07:06:21;;;;;;;;;0.00;0.00;;;;;;;;5034179;28;11496;-79
2021/12/05 07:08:51;;;;;;;;;1.50;0.25;;;;;;;;5041897;28;11436;-79
2021/12/05 07:11:23;;;;;;;;;0.25;0.25;;;;;;;;5044299;28;11526;-80
2021/12/05 07:16:41;;;;;;;;;0.75;0.75;;;;;;;;5038845;28;11425;-80
2021/12/05 07:19:26;;;;;;;;;0.00;0.00;;;;;;;;5044032;28;11442;-80
2021/12/05 07:21:56;;;;;;;;;0.00;0.00;;;;;;;;5016406;28;12211;-79
2021/12/05 07:24:38;;;;;;;;;0.00;0.00;;;;;;;;5013201;28;11486;-79
2021/12/05 07:40:19;;;;;;;;;1.00;1.00;;;;;;;;5036279;28;11463;-79
2021/12/05 07:41:05;;;;;;;;;0.00;0.00;;;;;;;;5043262;28;11456;-79
2021/12/05 07:43:32;;;;;;;;;0.00;0.00;;;;;;;;5038205;28;11506;-71
2021/12/05 07:46:05;;;;;;;;;0.00;0.00;;;;;;;;5032230;28;11591;-78
2021/12/05 07:48:35;;;;;;;;;4.25;1.00;;;;;;;;5051420;28;11444;-75
2021/12/05 07:51:14;;;;;;;;;0.00;0.00;;;;;;;;5032528;28;11468;-75
2021/12/05 07:53:51;;;;;;;;;2.00;0.00;;;;;;;;5043361;28;11423;-77
2021/12/05 07:56:25;;;;;;;;;0.00;0.00;;;;;;;;5030363;28;11444;-74
2021/12/05 08:15:42;;;;;;;;;1.00;1.00;;;;;;;;5035731;28;11444;-75
2021/12/05 08:18:10;;;;;;;;;1.00;1.00;;;;;;;;5044831;28;13009;-74
2021/12/05 08:20:39;;;;;;;;;1.00;1.00;;;;;;;;5040016;28;12346;-74
2021/12/05 08:23:10;;;;;;;;;0.00;0.00;;;;;;;;5040931;28;12592;-75
2021/12/05 08:25:41;;;;;;;;;1.00;1.00;;;;;;;;5041155;28;11486;-74
2021/12/05 08:28:21;;;;;;;;;0.00;0.00;;;;;;;;5046817;28;11424;-75
2021/12/05 08:30:58;;;;;;;;;1.00;1.00;;;;;;;;5039753;28;11392;-74
2021/12/05 08:33:44;;;;;;;;;2.00;1.00;;;;;;;;5032444;28;11519;-74
2021/12/05 08:36:37;;;;;;;;;1.00;1.00;;;;;;;;5043125;28;11578;-74
2021/12/05 08:45:15;;;;;;;;;1.00;1.00;;;;;;;;5033560;28;11490;-76
2021/12/05 09:26:56;;;;;;;;;2.50;1.00;;;;;;;;5039730;28;11543;-75
2021/12/05 09:29:55;;;;;;;;;2.00;2.00;;;;;;;;5034467;28;11402;-75
2021/12/05 09:52:52;;;;;;;;;0.00;0.00;;;;;;;;5033675;28;12148;-75
2021/12/05 10:03:36;;;;;;;;;2.00;1.00;;;;;;;;5037507;28;11925;-76
2021/12/05 10:08:56;;;;;;;;;1.25;1.25;;;;;;;;5048803;28;11369;-75
2021/12/05 10:14:32;;;;;;;;;1.00;1.00;;;;;;;;5031192;28;11608;-76
2021/12/05 10:36:12;;;;;;;;;3.75;1.00;;;;;;;;5039009;28;11142;-74
2021/12/05 10:38:45;;;;;;;;;1.00;1.00;;;;;;;;5041109;28;11553;-76
2021/12/05 10:41:35;;;;;;;;;1.50;1.50;;;;;;;;5039566;28;11392;-75
2021/12/05 10:44:05;;;;;;;;;1.50;1.50;;;;;;;;5031067;28;11416;-75
2021/12/05 10:46:34;;;;;;;;;1.00;1.00;;;;;;;;5032480;28;11213;-74
2021/12/05 10:49:04;;;;;;;;;1.00;1.00;;;;;;;;5042479;28;11237;-76
2021/12/05 10:51:35;;;;;;;;;3.25;3.25;;;;;;;;5055479;28;11428;-75
2021/12/05 10:54:05;;;;;;;;;2.25;1.75;;;;;;;;5038487;28;11428;-73
2021/12/05 10:56:34;;;;;;;;;4.00;1.50;;;;;;;;5042798;28;11395;-74
2021/12/05 10:59:06;;;;;;;;;2.00;2.00;;;;;;;;5041943;28;11499;-74
2021/12/05 11:01:37;;;;;;;;;1.00;1.00;;;;;;;;5048776;28;11463;-74
2021/12/05 11:04:08;;;;;;;;;0.75;0.75;;;;;;;;5050553;28;11544;-74
2021/12/05 11:06:49;;;;;;;;;1.00;1.00;;;;;;;;5058280;28;11375;-77
2021/12/05 11:09:20;;;;;;;;;0.00;0.00;;;;;;;;5044465;28;12287;-74
2021/12/05 11:11:50;;;;;;;;;0.00;0.00;;;;;;;;5052816;28;11429;-75
2021/12/05 11:14:19;;;;;;;;;0.00;0.00;;;;;;;;5047217;28;11382;-74
2021/12/05 11:16:51;;;;;;;;;0.00;0.00;;;;;;;;5041080;28;11404;-75
2021/12/05 11:19:22;;;;;;;;;0.00;0.00;;;;;;;;5021441;28;11476;-75
2021/12/05 11:21:56;;;;;;;;;0.00;0.00;;;;;;;;5024276;28;11382;-76
2021/12/05 11:24:26;;;;;;;;;0.00;0.00;;;;;;;;5039032;28;11524;-77
2021/12/05 11:27:23;;;;;;;;;0.00;0.00;;;;;;;;5035297;28;11426;-77
2021/12/05 11:30:04;;;;;;;;;11.75;8.50;;;;;;;;5038310;28;11387;-77
2021/12/05 11:32:38;;;;;;;;;8.50;6.00;;;;;;;;5039154;28;11537;-79
2021/12/05 11:35:25;;;;;;;;;21.00;16.75;;;;;;;;5041821;28;11407;-76
2021/12/05 11:37:59;;;;;;;;;0.00;0.00;;;;;;;;5028043;28;11445;-76
2021/12/05 11:40:29;;;;;;;;;0.00;0.00;;;;;;;;5043475;28;11425;-78
2021/12/05 11:43:01;;;;;;;;;0.00;0.00;;;;;;;;5027831;28;11397;-75
2021/12/05 11:45:30;;;;;;;;;0.00;0.00;;;;;;;;5040105;28;11449;-76
2021/12/05 11:47:59;;;;;;;;;0.00;0.00;;;;;;;;5014605;28;11388;-81
2021/12/05 11:50:35;;;;;;;;;0.00;0.00;;;;;;;;5038242;28;11422;-77
2021/12/05 11:53:04;;;;;;;;;0.00;0.00;;;;;;;;5024107;28;11396;-81
2021/12/05 11:55:33;;;;;;;;;0.00;0.00;;;;;;;;5034699;28;11457;-76
2021/12/05 11:58:01;;;;;;;;;0.00;0.00;;;;;;;;5028020;28;11423;-81
2021/12/05 12:00:30;;;;;;;;;0.00;0.00;;;;;;;;5030861;28;12102;-82
2021/12/05 12:02:58;;;;;;;;;0.00;0.00;;;;;;;;5039146;28;11430;-84
2021/12/05 12:05:29;;;;;;;;;0.00;0.00;;;;;;;;5020577;28;11513;-79
2021/12/05 12:08:02;;;;;;;;;0.00;0.00;;;;;;;;5038076;28;11431;-89
2021/12/05 12:10:33;;;;;;;;;0.00;0.00;;;;;;;;5044760;28;11370;-85
2021/12/05 12:13:05;;;;;;;;;0.00;0.00;;;;;;;;5035000;28;11429;-89
2021/12/05 12:15:33;;;;;;;;;0.00;0.00;;;;;;;;5042069;28;11405;-89
2021/12/05 12:18:07;;;;;;;;;0.00;0.00;;;;;;;;5042355;28;11508;-85
2021/12/05 12:20:38;;;;;;;;;0.00;0.00;;;;;;;;5033178;28;11401;-87
2021/12/05 12:23:06;;;;;;;;;0.00;0.00;;;;;;;;5042954;28;11384;-88
2021/12/05 12:25:39;;;;;;;;;0.00;0.00;;;;;;;;5039874;28;11419;-82
2021/12/05 12:28:08;;;;;;;;;0.00;0.00;;;;;;;;5034838;28;11419;-83
2021/12/05 12:30:41;;;;;;;;;0.00;0.00;;;;;;;;5032472;28;11359;-78
2021/12/05 12:33:13;;;;;;;;;0.00;0.00;;;;;;;;5029111;28;11472;-79
2021/12/05 12:35:40;;;;;;;;;0.00;0.00;;;;;;;;5033190;28;11134;-82
2021/12/05 12:38:13;;;;;;;;;0.00;0.00;;;;;;;;5036076;28;13026;-80
2021/12/05 12:40:45;;;;;;;;;0.00;0.00;;;;;;;;5036192;28;11378;-81
2021/12/05 12:43:41;;;;;;;;;0.00;0.00;;;;;;;;5018447;28;11379;-84
2021/12/05 12:46:28;;;;;;;;;1.00;0.00;;;;;;;;5023360;28;11433;-82
2021/12/05 12:48:57;;;;;;;;;0.00;0.00;;;;;;;;5018143;28;11398;-87
2021/12/05 12:51:31;;;;;;;;;0.00;0.00;;;;;;;;5031259;28;11446;-77
2021/12/05 12:54:02;;;;;;;;;0.00;0.00;;;;;;;;5038272;28;11318;-78
2021/12/05 12:56:32;;;;;;;;;0.00;0.00;;;;;;;;5025940;28;11059;-78
2021/12/05 12:59:01;;;;;;;;;0.00;0.00;;;;;;;;5039471;28;11235;-77
2021/12/05 13:01:49;;;;;;;;;0.00;0.00;;;;;;;;5031500;28;11100;-78
2021/12/05 13:04:38;;;;;;;;;0.00;0.00;;;;;;;;5030153;28;11273;-84
2021/12/05 13:10:00;;;;;;;;;0.00;0.00;;;;;;;;5039058;28;11440;-77
2021/12/05 13:10:27;;;;;;;;;0.00;0.00;;;;;;;;5033393;28;11138;-74
2021/12/05 13:12:59;;;;;;;;;0.00;0.00;;;;;;;;5034492;28;11420;-75
2021/12/05 13:15:37;;;;;;;;;0.00;0.00;;;;;;;;5041293;28;11353;-78
2021/12/05 13:18:18;;;;;;;;;0.00;0.00;;;;;;;;5033349;28;11410;-77
2021/12/05 13:20:53;;;;;;;;;0.00;0.00;;;;;;;;5033634;28;11100;-77
2021/12/05 13:23:32;;;;;;;;;0.00;0.00;;;;;;;;5042799;28;11552;-77
2021/12/05 13:26:24;;;;;;;;;0.00;0.00;;;;;;;;5041931;28;11066;-77
2021/12/05 13:28:55;;;;;;;;;0.00;0.00;;;;;;;;5042175;28;11867;-77
2021/12/05 13:31:50;;;;;;;;;0.00;0.00;;;;;;;;5037479;28;11957;-76
2021/12/05 13:34:46;;;;;;;;;0.00;0.00;;;;;;;;5041336;28;10901;-76
2021/12/05 13:37:34;;;;;;;;;0.00;0.00;;;;;;;;5026793;28;11747;-76
2021/12/05 13:40:17;;;;;;;;;0.00;0.00;;;;;;;;5018275;28;11043;-76
2021/12/05 13:42:48;;;;;;;;;0.00;0.00;;;;;;;;5035643;28;11070;-76
2021/12/05 13:45:37;;;;;;;;;0.00;0.00;;;;;;;;5031444;28;11042;-78
2021/12/05 13:48:26;;;;;;;;;0.00;0.00;;;;;;;;5040057;28;11130;-78
2021/12/05 13:51:02;;;;;;;;;0.00;0.00;;;;;;;;5029417;28;11235;-78
2021/12/05 13:53:41;;;;;;;;;0.00;0.00;;;;;;;;5045388;28;11237;-78
2021/12/05 13:56:11;;;;;;;;;0.00;0.00;;;;;;;;5031457;28;11211;-78
2021/12/05 13:58:45;;;;;;;;;0.00;0.00;;;;;;;;5034868;28;11064;-77
2021/12/05 14:01:18;;;;;;;;;0.00;0.00;;;;;;;;5036999;28;11075;-78
2021/12/05 14:03:49;;;;;;;;;0.00;0.00;;;;;;;;5029847;28;11120;-78
2021/12/05 14:06:39;;;;;;;;;1.00;0.00;;;;;;;;5031547;28;10992;-78
2021/12/05 14:09:19;;;;;;;;;0.00;0.00;;;;;;;;5042811;28;11107;-78
2021/12/05 14:11:50;;;;;;;;;0.00;0.00;;;;;;;;5031993;28;11988;-78
2021/12/05 14:14:23;;;;;;;;;0.00;0.00;;;;;;;;5038457;28;11134;-74
2021/12/05 14:16:54;;;;;;;;;0.00;0.00;;;;;;;;5029420;28;10994;-77
2021/12/05 14:19:24;;;;;;;;;0.00;0.00;;;;;;;;5036865;28;10967;-79
2021/12/05 14:21:54;;;;;;;;;0.00;0.00;;;;;;;;5029783;28;10983;-80
2021/12/05 14:24:24;;;;;;;;;4.00;0.00;;;;;;;;5040955;28;11124;-79
2021/12/05 14:26:53;;;;;;;;;0.00;0.00;;;;;;;;5040865;28;11842;-78
2021/12/05 14:29:24;;;;;;;;;0.00;0.00;;;;;;;;5040004;28;10980;-78
2021/12/05 14:31:55;;;;;;;;;0.00;0.00;;;;;;;;5038626;28;11863;-79
2021/12/05 14:34:23;;;;;;;;;0.00;0.00;;;;;;;;5044006;28;11157;-77
2021/12/05 14:36:53;;;;;;;;;0.00;0.00;;;;;;;;5029410;28;11893;-81
2021/12/05 14:39:25;;;;;;;;;0.00;0.00;;;;;;;;5042932;28;11066;-77
2021/12/05 14:41:56;;;;;;;;;0.00;0.00;;;;;;;;5042462;28;11755;-79
2021/12/05 14:44:24;;;;;;;;;0.00;0.00;;;;;;;;5044152;28;11078;-77
2021/12/05 14:46:59;;;;;;;;;1.00;1.00;;;;;;;;5045195;28;10892;-80
2021/12/05 14:49:28;;;;;;;;;2.00;1.00;;;;;;;;5031694;28;11041;-79
2021/12/05 14:51:56;;;;;;;;;1.00;1.00;;;;;;;;5040085;28;11069;-78
2021/12/05 14:54:29;;;;;;;;;1.00;1.00;;;;;;;;5027739;28;10894;-79
2021/12/05 14:56:57;;;;;;;;;1.25;1.25;;;;;;;;5030689;28;11046;-79
2021/12/05 14:59:25;;;;;;;;;1.00;1.00;;;;;;;;5039334;28;11170;-79
2021/12/05 15:01:57;;;;;;;;;1.00;1.00;;;;;;;;5037784;28;11081;-77
2021/12/05 15:04:30;;;;;;;;;1.00;1.00;;;;;;;;5040731;28;11144;-79
2021/12/05 15:06:58;;;;;;;;;1.00;0.00;;;;;;;;5043706;28;11180;-79
2021/12/05 15:09:37;;;;;;;;;1.50;1.00;;;;;;;;5041213;28;11156;-81
2021/12/05 15:12:09;;;;;;;;;1.00;1.00;;;;;;;;5025394;28;11219;-79
2021/12/05 15:14:39;;;;;;;;;1.00;1.00;;;;;;;;5034349;28;11156;-80
2021/12/05 15:17:11;;;;;;;;;1.00;1.00;;;;;;;;5036281;28;11370;-81
2021/12/05 15:19:41;;;;;;;;;1.00;1.00;;;;;;;;5040365;28;11889;-80
2021/12/05 15:22:09;;;;;;;;;0.50;0.50;;;;;;;;5036247;28;11113;-79
2021/12/05 15:24:37;;;;;;;;;1.00;1.00;;;;;;;;5038920;28;11729;-78
2021/12/05 15:27:05;;;;;;;;;2.00;2.00;;;;;;;;5044183;28;11222;-79
2021/12/05 15:29:33;;;;;;;;;3.50;2.00;;;;;;;;5029806;28;11415;-80
2021/12/05 15:32:00;;;;;;;;;2.00;2.00;;;;;;;;5034249;28;11357;-78
2021/12/05 15:34:32;;;;;;;;;2.00;2.00;;;;;;;;5036324;28;11415;-78
2021/12/05 15:37:07;;;;;;;;;3.50;3.50;;;;;;;;5035562;28;11505;-79
2021/12/05 15:39:35;;;;;;;;;1.00;1.00;;;;;;;;5042438;28;11993;-79
2021/12/05 15:42:02;;;;;;;;;0.00;0.00;;;;;;;;5032376;28;11401;-78
2021/12/05 15:44:36;;;;;;;;;3.25;1.50;;;;;;;;5042553;28;11368;-77
2021/12/05 15:47:11;;;;;;;;;2.00;2.00;;;;;;;;5042096;28;11465;-77
2021/12/05 15:49:45;;;;;;;;;0.75;0.75;;;;;;;;5043838;28;11406;-80
2021/12/05 15:52:13;;;;;;;;;1.25;1.25;;;;;;;;5044095;28;11384;-76
2021/12/05 15:54:40;;;;;;;;;1.25;1.00;;;;;;;;5043992;28;11446;-80
2021/12/05 15:57:13;;;;;;;;;4.00;4.00;;;;;;;;5043317;28;11418;-77
2021/12/05 15:59:42;;;;;;;;;8.25;8.25;;;;;;;;5029101;28;11415;-78
2021/12/05 16:02:11;;;;;;;;;4.00;2.00;;;;;;;;5048129;28;11812;-77
2021/12/05 16:04:39;;;;;;;;;1.00;1.00;;;;;;;;5063236;28;12264;-80
2021/12/05 16:07:10;;;;;;;;;0.00;0.00;;;;;;;;5057991;28;11434;-80
2021/12/05 16:09:40;;;;;;;;;2.00;0.00;;;;;;;;5061983;28;11994;-84
2021/12/05 16:12:10;;;;;;;;;1.25;1.25;;;;;;;;5046369;28;11181;-76
2021/12/05 16:14:42;;;;;;;;;1.00;1.00;;;;;;;;5041872;28;11388;-75
2021/12/05 16:17:19;;;;;;;;;1.75;1.00;;;;;;;;5043065;28;11433;-79
2021/12/05 16:20:13;;;;;;;;;4.00;4.00;;;;;;;;5026419;28;11498;-78
2021/12/05 16:23:19;;;;;;;;;1.50;1.50;;;;;;;;5036771;28;11424;-78
2021/12/05 16:25:50;;;;;;;;;4.00;1.00;;;;;;;;5026113;28;11428;-77
2021/12/05 16:28:25;;;;;;;;;0.50;0.50;;;;;;;;5044337;28;11424;-79
2021/12/05 16:30:59;;;;;;;;;1.50;1.50;;;;;;;;5042623;28;11368;-78
2021/12/05 16:33:29;;;;;;;;;1.00;1.00;;;;;;;;5027381;28;12266;-80
2021/12/05 16:35:58;;;;;;;;;2.50;1.00;;;;;;;;5030774;28;11363;-80
2021/12/05 16:38:42;;;;;;;;;1.00;1.00;;;;;;;;5043046;28;11482;-79
2021/12/05 16:41:20;;;;;;;;;1.00;1.00;;;;;;;;5040345;28;11415;-80
2021/12/05 16:43:58;;;;;;;;;0.75;0.75;;;;;;;;5060801;28;11510;-80
2021/12/05 16:46:28;;;;;;;;;1.00;1.00;;;;;;;;5032997;28;11407;-77
2021/12/05 16:48:58;;;;;;;;;0.75;0.50;;;;;;;;5008450;28;11400;-80
2021/12/05 16:51:30;;;;;;;;;1.50;1.50;;;;;;;;5020751;28;11415;-78
2021/12/05 16:54:04;;;;;;;;;1.75;1.75;;;;;;;;5031702;28;11420;-83
2021/12/05 16:56:43;;;;;;;;;4.00;4.00;;;;;;;;5029086;28;11499;-78
2021/12/05 16:59:14;;;;;;;;;1.50;1.50;;;;;;;;5029119;28;11439;-78
2021/12/05 17:01:42;;;;;;;;;1.00;1.00;;;;;;;;5027962;28;12164;-82
2021/12/05 17:04:11;;;;;;;;;4.00;4.00;;;;;;;;5038382;28;11416;-81
2021/12/05 17:06:47;;;;;;;;;4.50;2.00;;;;;;;;5038821;28;11391;-79
2021/12/05 17:09:16;;;;;;;;;2.00;2.00;;;;;;;;5033540;28;11441;-83
2021/12/05 17:11:44;;;;;;;;;2.00;2.00;;;;;;;;5030118;28;11431;-82
2021/12/05 17:14:21;;;;;;;;;0.00;0.00;;;;;;;;5041963;28;11653;-80
2021/12/05 17:16:49;;;;;;;;;4.00;4.00;;;;;;;;5030999;28;12190;-81
2021/12/05 17:19:18;;;;;;;;;5.00;5.00;;;;;;;;5033982;28;11432;-82
2021/12/05 17:21:49;;;;;;;;;8.00;8.00;;;;;;;;5040932;28;11423;-81
2021/12/05 17:24:19;;;;;;;;;6.00;6.00;;;;;;;;5036991;28;11387;-81
2021/12/05 17:26:49;;;;;;;;;8.25;8.25;;;;;;;;5041418;28;11388;-82
2021/12/05 17:29:19;;;;;;;;;8.00;8.00;;;;;;;;5017817;28;11418;-89
2021/12/05 17:31:50;;;;;;;;;5.25;5.25;;;;;;;;5041376;28;11388;-84
2021/12/05 17:34:23;;;;;;;;;5.25;5.25;;;;;;;;5033612;28;11383;-82
2021/12/05 17:36:56;;;;;;;;;4.00;4.00;;;;;;;;5036156;28;11409;-89
2021/12/05 17:39:27;;;;;;;;;2.00;2.00;;;;;;;;5038055;28;11414;-81
2021/12/05 17:41:57;;;;;;;;;3.00;3.00;;;;;;;;5036463;28;11582;-86
2021/12/05 17:44:25;;;;;;;;;4.00;4.00;;;;;;;;5045989;28;11394;-82
2021/12/05 17:46:55;;;;;;;;;5.75;5.75;;;;;;;;5052888;28;11410;-79
2021/12/05 17:49:24;;;;;;;;;7.50;5.00;;;;;;;;5059658;28;11407;-80
2021/12/05 17:51:51;;;;;;;;;5.00;5.00;;;;;;;;5042000;28;11445;-79
2021/12/05 17:54:26;;;;;;;;;9.00;6.50;;;;;;;;5054247;28;11395;-81
2021/12/05 17:56:56;;;;;;;;;8.00;8.00;;;;;;;;5041643;28;11434;-82
2021/12/05 17:59:36;;;;;;;;;12.50;9.50;;;;;;;;5042309;28;11379;-82
2021/12/05 18:04:50;;;;;;;;;10.00;10.00;;;;;;;;5052373;28;11386;-80
2021/12/05 18:07:20;;;;;;;;;6.25;6.25;;;;;;;;5048264;28;11397;-79
2021/12/05 18:09:47;;;;;;;;;6.00;6.00;;;;;;;;5062877;28;11397;-80
2021/12/05 18:12:21;;;;;;;;;10.00;10.00;;;;;;;;5047383;28;12280;-80
2021/12/05 18:14:49;;;;;;;;;5.75;5.75;;;;;;;;5043489;28;12225;-79
2021/12/05 18:17:17;;;;;;;;;9.00;6.00;;;;;;;;5057198;28;11527;-80
2021/12/05 18:19:44;;;;;;;;;5.50;5.50;;;;;;;;5040884;28;11379;-82
2021/12/05 18:22:12;;;;;;;;;5.50;5.50;;;;;;;;5065916;28;11406;-79
2021/12/05 18:24:43;;;;;;;;;7.50;6.00;;;;;;;;5051444;28;12208;-81
2021/12/05 18:27:11;;;;;;;;;6.75;6.75;;;;;;;;5065364;28;11419;-79
2021/12/05 18:29:40;;;;;;;;;5.75;5.75;;;;;;;;5043116;28;11394;-80
2021/12/05 18:32:10;;;;;;;;;6.00;6.00;;;;;;;;5019406;28;11367;-81
2021/12/05 18:34:37;;;;;;;;;4.00;4.00;;;;;;;;5028598;28;11405;-79
2021/12/05 18:37:06;;;;;;;;;7.00;5.25;;;;;;;;5046193;28;11526;-80
2021/12/05 18:39:37;;;;;;;;;4.75;4.75;;;;;;;;5052334;28;12168;-82
2021/12/05 18:42:08;;;;;;;;;4.75;4.75;;;;;;;;5048468;28;11494;-81
2021/12/05 18:44:39;;;;;;;;;5.00;5.00;;;;;;;;5033876;28;11427;-81
2021/12/05 18:47:09;;;;;;;;;5.00;4.00;;;;;;;;5044016;28;11529;-82
2021/12/05 18:49:37;;;;;;;;;4.00;2.25;;;;;;;;5038850;28;11395;-81
2021/12/05 18:52:06;;;;;;;;;4.50;4.50;;;;;;;;5036598;28;11538;-79
2021/12/05 18:54:35;;;;;;;;;3.50;3.50;;;;;;;;5038587;28;11382;-79
2021/12/05 18:57:03;;;;;;;;;3.00;3.00;;;;;;;;5032149;28;11415;-81
2021/12/05 18:59:32;;;;;;;;;5.25;2.75;;;;;;;;5037646;28;11423;-80
2021/12/05 19:04:50;;;;;;;;;7.25;7.25;;;;;;;;5040911;28;12236;-81
2021/12/05 19:07:24;;;;;;;;;10.00;9.75;;;;;;;;5025284;28;11422;-80
2021/12/05 19:12:38;;;;;;;;;34.75;30.25;;;;;;;;5042296;28;11581;-78
2021/12/05 19:15:09;;;;;;;;;43.50;36.75;;;;;;;;5037963;28;11506;-83
2021/12/05 19:17:40;;;;;;;;;18.00;18.00;;;;;;;;5019675;28;11537;-79
2021/12/05 19:20:15;;;;;;;;;9.00;9.00;;;;;;;;5042566;28;11441;-80
2021/12/05 19:22:43;;;;;;;;;8.00;8.00;;;;;;;;5035559;28;11509;-80
2021/12/05 19:25:16;;;;;;;;;7.25;5.25;;;;;;;;5033297;28;11410;-79
2021/12/05 19:27:44;;;;;;;;;1.75;1.25;;;;;;;;5036186;28;11421;-78
2021/12/05 19:30:14;;;;;;;;;6.50;3.25;;;;;;;;5023138;28;11412;-81
2021/12/05 19:32:42;;;;;;;;;3.50;3.50;;;;;;;;5043542;28;11416;-78
2021/12/05 19:35:11;;;;;;;;;4.00;4.00;;;;;;;;5036264;28;11249;-80